METAR Data
IDs: Format: Raw Decoded Include TAF

Data at: 2201 UTC 18 Sep 2018

KMBS 182153Z 27003KT 10SM CLR 23/18 A2993 RMK AO2 SLP130 T02330183
KMBS 182053Z 26006KT 10SM FEW060 23/19 A2994 RMK AO2 SLP134 T02330189 58004
KMBS 182037Z 29006KT 10SM SCT025 SCT060 23/18 A2994 RMK AO2 T02280183
KMBS 181953Z 26006KT 10SM OVC021 23/18 A2994 RMK AO2 SLP136 T02330183
KMBS 181853Z VRB03KT 10SM OVC022 23/18 A2995 RMK AO2 SLP138 T02280178
KMBS 181753Z 10SM OVC021 23/17 A2995 RMK AO2 SLP138 T02330172 10233 20194 58007
KMBS 181653Z 06005KT 10SM OVC021 22/16 A2996 RMK AO2 SLP143 T02220161
KMBS 181553Z 06003KT 10SM OVC017 22/17 A2997 RMK AO2 SLP145 T02170167
KMBS 181453Z 05005KT 10SM OVC015 21/15 A2997 RMK AO2 SLP146 T02060150 53005
KMBS 181353Z 03007KT 10SM OVC011 20/16 A2996 RMK AO2 SLP141 T02000161
KMBS 181253Z 02004KT 10SM OVC011 20/18 A2994 RMK AO2 SLP136 T02000178
KMBS 181153Z 00000KT 9SM BKN012 19/18 A2996 RMK AO2 SLP140 T01940178 10217 20194 53011
KMBS 181053Z 00000KT 10SM CLR 20/18 A2993 RMK AO2 SLP132 T02000183
KMBS 181038Z 00000KT 10SM SCT010 20/18 A2993 RMK AO2 T02000183
KMBS 180953Z 03003KT 10SM OVC011 21/18 A2993 RMK AO2 SLP132 T02060183
KMBS 180853Z AUTO 02009KT 10SM OVC011 21/19 A2992 RMK AO2 SLP128 T02060189 51004
KMBS 180816Z AUTO 05005KT 10SM BKN009 BKN070 21/19 A2992 RMK AO2 T02060189
KMBS 180800Z AUTO 06005KT 10SM FEW009 SCT070 20/19 A2992 RMK AO2 T02000189
KMBS 180753Z AUTO 06008KT 10SM FEW070 21/19 A2992 RMK AO2 SLP126 T02060189
KMBS 180653Z AUTO 04006KT 10SM CLR 21/18 A2992 RMK AO2 SLP127 T02060183
KMBS 180553Z AUTO 34005KT 10SM CLR 22/18 A2991 RMK AO2 SLP123 T02170183 10278 20211 51005
KMBS 180453Z AUTO 32004KT 10SM FEW075 22/19 A2990 RMK AO2 SLP121 T02220194 403110167
KMBS 180353Z AUTO 27006KT 10SM BKN075 23/20 A2991 RMK AO2 SLP124 T02280200 TSNO
KMBS 180253Z AUTO 27006KT 10SM CLR 22/19 A2990 RMK AO2 SLP120 T02170194 53007 TSNO
KMBS 180153Z 25006KT 10SM CLR 24/21 A2988 RMK AO2 SLP115 T02440206
KMBS 180053Z 21004KT 10SM CLR 26/21 A2987 RMK AO2 SLP111 T02560206
KMBS 172353Z 21004KT 10SM FEW055 28/21 A2987 RMK AO2 SLP112 T02780206 10311 20278 53001
KMBS 172253Z 24003KT 10SM FEW050 29/20 A2987 RMK AO2 SLP111 T02940200
KMBS 172153Z 28004KT 10SM FEW075 29/20 A2987 RMK AO2 SLP111 T02940200
KMBS 172053Z 23004KT 10SM CLR 31/19 A2987 RMK AO2 SLP111 T03060194 56020
KMBS 171953Z 26005KT 10SM CLR 31/20 A2988 RMK AO2 SLP116 T03060200
KMBS 171853Z 25004KT 10SM CLR 29/20 A2990 RMK AO2 SLP121 T02940200
KMBS 171753Z 00000KT 10SM CLR 29/20 A2993 RMK AO2 SLP131 T02940200 10294 20178 58014
KMBS 171653Z VRB03KT 10SM CLR 28/19 A2995 RMK AO2 SLP138 T02830189
KMBS 171553Z VRB03KT 10SM CLR 27/21 A2997 RMK AO2 SLP143 T02720206
KMBS 171453Z 00000KT 10SM CLR 24/21 A2997 RMK AO2 SLP147 T02440206 58007
KMBS 171353Z 23004KT 10SM CLR 22/20 A2998 RMK AO2 SLP150 T02220200
KMBS 171253Z 17004KT 10SM CLR 20/19 A2999 RMK AO2 SLP153 T02000189
KMBS 171153Z 00000KT 8SM CLR 18/17 A2999 RMK AO2 SLP154 T01780167 10206 20167 55003
KMBS 171053Z 18004KT 7SM CLR 17/16 A2999 RMK AO2 SLP153 T01670161